Time;durP1;ratioP1;P1;durP2;ratioP2;P2;SDS_P1;SDS_P2;PMS_P1;PMS_P2;Temp;Humidity;BMP_temperature;BMP_pressure;BME280_temperature;BME280_humidity;BME280_pressure;Samples;Min_cycle;Max_cycle;Signal;HPM_P1;HPM_P2
2022/12/23 00:00:56;;;;;;;5.53;1.67;;;16.00;67.80;;;;;;4953611;29;20564;-71
2022/12/23 00:03:22;;;;;;;7.10;2.20;;;16.00;67.90;;;;;;4953885;29;20471;-71
2022/12/23 00:05:48;;;;;;;6.68;2.25;;;16.00;67.90;;;;;;4953884;28;20039;-72
2022/12/23 00:08:14;;;;;;;6.35;2.30;;;16.00;67.90;;;;;;4957191;29;20020;-71
2022/12/23 00:10:40;;;;;;;5.55;1.90;;;16.00;68.00;;;;;;4957056;29;20027;-71
2022/12/23 00:16:00;;;;;;;5.35;2.08;;;16.00;68.00;;;;;;4957015;29;20030;-71
2022/12/23 00:18:25;;;;;;;6.93;2.33;;;16.00;68.00;;;;;;4956954;29;20024;-71
2022/12/23 00:20:57;;;;;;;6.15;2.00;;;16.00;68.00;;;;;;4956921;29;20062;-71
2022/12/23 00:23:23;;;;;;;8.50;2.00;;;16.00;68.00;;;;;;4956946;29;20100;-71
2022/12/23 00:25:48;;;;;;;7.75;2.15;;;16.00;68.00;;;;;;4956859;29;20039;-71
2022/12/23 00:28:22;;;;;;;4.15;1.70;;;16.00;68.00;;;;;;4956782;29;20042;-71
2022/12/23 00:30:49;;;;;;;4.47;1.90;;;16.00;67.90;;;;;;4956632;28;20030;-71
2022/12/23 00:33:17;;;;;;;4.63;1.67;;;16.00;68.00;;;;;;4956658;29;20194;-71
2022/12/23 00:35:43;;;;;;;5.25;1.83;;;16.00;68.00;;;;;;4956848;29;20027;-71
2022/12/23 00:38:09;;;;;;;5.70;1.83;;;16.00;67.90;;;;;;4956510;29;20053;-71
2022/12/23 00:43:19;;;;;;;6.68;1.70;;;16.00;68.00;;;;;;4956561;29;20141;-71
2022/12/23 00:45:44;;;;;;;5.28;2.25;;;16.00;68.00;;;;;;4956493;29;20060;-71
2022/12/23 00:50:54;;;;;;;4.35;1.85;;;16.00;68.00;;;;;;4956638;29;20548;-71
2022/12/23 00:53:20;;;;;;;5.90;1.73;;;16.00;67.90;;;;;;4956255;29;20047;-71
2022/12/23 00:55:49;;;;;;;7.10;1.90;;;16.00;67.90;;;;;;4956253;29;20023;-71
2022/12/23 00:58:16;;;;;;;6.63;1.97;;;16.00;68.00;;;;;;4956182;29;20031;-71
2022/12/23 01:06:11;;;;;;;5.07;1.80;;;15.90;67.90;;;;;;4956045;29;20030;-72
2022/12/23 01:08:37;;;;;;;6.28;2.03;;;15.90;67.90;;;;;;4956097;29;20039;-72
2022/12/23 01:11:10;;;;;;;4.65;1.50;;;16.00;68.70;;;;;;4955856;29;20694;-71
2022/12/23 01:13:36;;;;;;;6.68;2.00;;;15.90;68.00;;;;;;4955871;29;20039;-72
2022/12/23 01:16:04;;;;;;;6.75;1.90;;;16.00;68.00;;;;;;4955931;29;20055;-71
2022/12/23 01:18:30;;;;;;;6.63;2.20;;;15.90;67.90;;;;;;4955249;28;20386;-72
2022/12/23 01:21:03;;;;;;;6.13;1.73;;;15.90;68.00;;;;;;4955884;29;20023;-71
2022/12/23 01:23:29;;;;;;;5.30;1.50;;;15.90;68.00;;;;;;4955820;29;20118;-72
2022/12/23 01:25:59;;;;;;;5.03;1.67;;;15.90;67.90;;;;;;4955649;29;20106;-71
2022/12/23 01:28:28;;;;;;;4.75;1.63;;;15.90;67.90;;;;;;4955888;29;20406;-72
2022/12/23 01:30:54;;;;;;;4.43;1.90;;;15.90;68.00;;;;;;4955424;28;20427;-72
2022/12/23 01:33:19;;;;;;;3.53;1.38;;;15.90;68.00;;;;;;4955479;29;20047;-72
2022/12/23 01:35:46;;;;;;;4.15;1.75;;;15.90;68.00;;;;;;4955458;29;20029;-72
2022/12/23 01:38:12;;;;;;;2.95;1.45;;;15.90;68.00;;;;;;4955442;29;20457;-72
2022/12/23 01:40:41;;;;;;;4.32;1.70;;;15.90;68.00;;;;;;4955487;29;20038;-72
2022/12/23 01:43:16;;;;;;;5.93;1.70;;;15.90;68.00;;;;;;4955355;29;20093;-71
2022/12/23 01:45:42;;;;;;;4.57;1.63;;;15.90;67.90;;;;;;4955368;29;20035;-72
2022/12/23 01:48:24;;;;;;;4.43;1.35;;;15.90;68.00;;;;;;4955386;29;20023;-71
2022/12/23 01:51:07;;;;;;;5.30;1.73;;;15.90;68.00;;;;;;4955281;29;20027;-71
2022/12/23 01:53:41;;;;;;;3.90;1.55;;;15.90;67.90;;;;;;4955030;29;20409;-71
2022/12/23 01:56:09;;;;;;;2.53;1.25;;;15.90;67.90;;;;;;4955328;29;20030;-72
2022/12/23 01:59:04;;;;;;;3.30;1.50;;;15.90;67.90;;;;;;4955136;29;20027;-72
2022/12/23 02:04:18;;;;;;;5.80;1.58;;;15.90;67.90;;;;;;4955111;29;20090;-72
2022/12/23 02:09:37;;;;;;;3.90;1.70;;;15.90;68.00;;;;;;4955193;29;20115;-71
2022/12/23 02:12:38;;;;;;;4.15;1.40;;;15.90;67.90;;;;;;4954809;29;20035;-72
2022/12/23 02:18:15;;;;;;;6.13;1.83;;;15.90;68.00;;;;;;4954941;29;20401;-71
2022/12/23 02:21:14;;;;;;;4.57;1.60;;;15.90;67.90;;;;;;4954744;29;20032;-71
2022/12/23 02:24:25;;;;;;;3.17;1.38;;;15.90;67.90;;;;;;4954701;29;20434;-71
2022/12/23 02:27:02;;;;;;;2.28;1.08;;;15.90;67.90;;;;;;4954641;29;20098;-71
2022/12/23 02:29:36;;;;;;;5.60;1.65;;;15.90;67.90;;;;;;4954402;28;20045;-71
2022/12/23 02:32:10;;;;;;;2.70;1.20;;;15.90;67.90;;;;;;4954242;28;20051;-71
2022/12/23 02:35:03;;;;;;;4.00;1.40;;;15.90;67.90;;;;;;4954530;29;20117;-71
2022/12/23 02:37:47;;;;;;;3.20;1.50;;;15.90;67.90;;;;;;4954607;29;20060;-71
2022/12/23 02:40:34;;;;;;;3.75;1.55;;;15.90;67.90;;;;;;4954738;29;20390;-71
2022/12/23 02:43:14;;;;;;;3.55;1.33;;;15.90;67.90;;;;;;4954464;29;20031;-71
2022/12/23 02:45:46;;;;;;;2.17;1.05;;;15.90;67.90;;;;;;4954366;29;20028;-71
2022/12/23 02:48:24;;;;;;;2.67;1.33;;;15.90;68.00;;;;;;4954360;29;20035;-70
2022/12/23 02:50:53;;;;;;;3.55;1.30;;;15.90;67.90;;;;;;4954212;29;20031;-70
2022/12/23 02:53:30;;;;;;;2.97;1.35;;;15.90;67.90;;;;;;4954318;29;20122;-71
2022/12/23 02:55:58;;;;;;;3.05;1.48;;;15.90;67.90;;;;;;4954265;29;20070;-71
2022/12/23 02:58:29;;;;;;;3.25;1.20;;;15.90;67.90;;;;;;4954353;29;20118;-71
2022/12/23 03:00:57;;;;;;;3.95;1.55;;;15.80;67.90;;;;;;4954175;29;20126;-71
2022/12/23 03:03:25;;;;;;;3.97;1.10;;;15.90;67.90;;;;;;4954144;29;20062;-71
2022/12/23 03:05:51;;;;;;;2.33;1.30;;;15.80;68.60;;;;;;4954104;29;20103;-71
2022/12/23 03:08:26;;;;;;;2.08;1.13;;;15.90;67.90;;;;;;4954055;29;20023;-70
2022/12/23 03:11:03;;;;;;;2.30;1.23;;;15.90;67.90;;;;;;4954139;29;20031;-71
2022/12/23 03:14:04;;;;;;;2.58;1.10;;;15.80;67.90;;;;;;4954148;29;20082;-70
2022/12/23 03:16:35;;;;;;;2.20;1.15;;;15.90;67.90;;;;;;4923091;29;20512;-71
2022/12/23 03:19:17;;;;;;;2.22;1.00;;;15.80;67.80;;;;;;4954060;29;20035;-70
2022/12/23 03:21:45;;;;;;;1.55;0.80;;;15.80;67.80;;;;;;4953993;29;20034;-71
2022/12/23 03:24:23;;;;;;;2.03;1.10;;;15.80;67.80;;;;;;4953995;29;20035;-70
2022/12/23 03:26:59;;;;;;;3.17;0.80;;;15.90;67.90;;;;;;4953952;29;20102;-70
2022/12/23 03:29:50;;;;;;;2.15;0.82;;;15.90;67.90;;;;;;4953873;29;20474;-71
2022/12/23 03:32:17;;;;;;;2.50;1.08;;;15.90;67.90;;;;;;4953487;28;20172;-71
2022/12/23 03:34:46;;;;;;;2.38;1.00;;;15.80;67.80;;;;;;4953757;29;20038;-71
2022/12/23 03:37:14;;;;;;;1.73;1.10;;;15.90;67.90;;;;;;4953892;29;20382;-72
2022/12/23 03:40:08;;;;;;;2.65;1.30;;;15.80;67.80;;;;;;4953678;29;20051;-72
2022/12/23 03:42:40;;;;;;;3.17;1.10;;;15.90;67.90;;;;;;4946350;29;20035;-71
2022/12/23 03:45:28;;;;;;;1.38;0.98;;;15.90;68.50;;;;;;4957572;29;20504;-72
2022/12/23 03:47:59;;;;;;;2.72;1.13;;;15.80;67.80;;;;;;4957464;29;20115;-71
2022/12/23 03:50:26;;;;;;;2.25;0.90;;;15.80;67.80;;;;;;4957853;29;20031;-71
2022/12/23 03:53:05;;;;;;;1.92;0.68;;;15.80;67.90;;;;;;4957283;29;20507;-71
2022/12/23 03:55:35;;;;;;;2.40;1.05;;;15.80;67.80;;;;;;4957388;29;20482;-71
2022/12/23 03:58:33;;;;;;;1.33;0.80;;;15.80;67.80;;;;;;4957443;29;20086;-72
2022/12/23 04:01:16;;;;;;;1.35;0.65;;;15.80;67.80;;;;;;4957337;29;20482;-71
2022/12/23 04:03:59;;;;;;;2.08;1.10;;;15.80;67.80;;;;;;4957248;29;20035;-71
2022/12/23 04:06:30;;;;;;;1.45;1.02;;;15.80;67.30;;;;;;4957223;29;20042;-71
2022/12/23 04:08:56;;;;;;;1.77;1.02;;;15.80;67.80;;;;;;4957238;29;20155;-71
2022/12/23 04:11:22;;;;;;;1.40;0.80;;;15.80;67.80;;;;;;4957030;29;20034;-71
2022/12/23 04:13:48;;;;;;;0.75;0.55;;;15.90;67.90;;;;;;4956969;29;20455;-71
2022/12/23 04:16:14;;;;;;;2.42;0.82;;;15.80;67.80;;;;;;4956952;29;20034;-71
2022/12/23 04:18:40;;;;;;;2.42;1.17;;;15.80;67.80;;;;;;4956941;29;20090;-71
2022/12/23 04:21:05;;;;;;;1.52;0.90;;;15.80;67.80;;;;;;4956859;29;20039;-71
2022/12/23 04:23:31;;;;;;;1.90;1.00;;;15.80;67.80;;;;;;4956915;29;20581;-71
2022/12/23 04:25:56;;;;;;;1.15;0.73;;;15.80;67.80;;;;;;4956812;29;20042;-71
2022/12/23 04:28:22;;;;;;;2.42;1.10;;;15.80;67.80;;;;;;4956837;29;20024;-71
2022/12/23 04:30:47;;;;;;;1.70;1.00;;;15.80;67.90;;;;;;4956528;28;20038;-72
2022/12/23 04:33:13;;;;;;;1.25;1.00;;;15.80;67.80;;;;;;4956591;29;20038;-72
2022/12/23 04:35:39;;;;;;;1.77;1.08;;;15.80;67.80;;;;;;4956660;29;20035;-72
2022/12/23 04:38:04;;;;;;;1.35;0.70;;;15.80;67.80;;;;;;4956614;29;20027;-72
2022/12/23 04:40:30;;;;;;;1.40;0.77;;;15.80;67.80;;;;;;4956610;29;20122;-72
2022/12/23 04:42:55;;;;;;;3.13;1.02;;;15.90;75.90;;;;;;4956497;29;20394;-72
2022/12/23 04:45:21;;;;;;;1.15;0.70;;;15.80;67.90;;;;;;4956626;29;20039;-71
2022/12/23 04:47:47;;;;;;;1.85;1.00;;;15.80;67.90;;;;;;4956445;29;20027;-71
2022/12/23 04:50:14;;;;;;;1.38;0.82;;;15.80;67.90;;;;;;4956327;29;20050;-71
2022/12/23 04:52:40;;;;;;;1.33;0.80;;;15.80;67.90;;;;;;4956210;28;20039;-71
2022/12/23 04:55:07;;;;;;;1.17;0.90;;;15.90;68.00;;;;;;4956301;29;20034;-71
2022/12/23 04:57:33;;;;;;;1.77;1.10;;;15.80;67.90;;;;;;4956219;29;20031;-71
2022/12/23 04:59:59;;;;;;;1.77;0.70;;;15.80;67.90;;;;;;4956237;29;20027;-71
2022/12/23 05:02:24;;;;;;;0.70;0.70;;;15.80;67.90;;;;;;4956358;29;20524;-71
2022/12/23 05:04:50;;;;;;;1.25;0.68;;;15.80;67.90;;;;;;4956182;29;20050;-71
2022/12/23 05:07:16;;;;;;;1.83;0.85;;;15.80;67.90;;;;;;4956051;29;20035;-71
2022/12/23 05:09:41;;;;;;;1.20;0.85;;;15.90;68.00;;;;;;4956071;29;20036;-72
2022/12/23 05:12:07;;;;;;;2.05;0.65;;;15.90;68.00;;;;;;4955928;29;20039;-71
2022/12/23 05:14:32;;;;;;;1.70;0.63;;;15.90;68.00;;;;;;4955955;29;20035;-71
2022/12/23 05:16:58;;;;;;;1.65;0.80;;;15.90;67.90;;;;;;4955988;29;20039;-72
2022/12/23 05:19:23;;;;;;;1.02;0.80;;;15.90;68.00;;;;;;4955922;29;20023;-72
2022/12/23 05:21:49;;;;;;;0.90;0.70;;;15.90;68.00;;;;;;4955916;29;20031;-71
2022/12/23 05:24:14;;;;;;;0.93;0.70;;;15.90;67.90;;;;;;4955758;29;20027;-71
2022/12/23 05:26:40;;;;;;;1.20;0.60;;;15.90;68.60;;;;;;4955993;29;20053;-71
2022/12/23 05:29:06;;;;;;;1.27;0.70;;;15.90;67.90;;;;;;4955587;29;20383;-71
2022/12/23 05:31:31;;;;;;;1.20;0.80;;;15.90;67.80;;;;;;4955338;28;20089;-71
2022/12/23 05:33:57;;;;;;;1.67;0.98;;;15.90;67.80;;;;;;4955326;29;20039;-71
2022/12/23 05:36:22;;;;;;;2.00;0.90;;;15.90;67.80;;;;;;4955426;29;20071;-70
2022/12/23 05:38:48;;;;;;;1.55;1.00;;;15.90;67.80;;;;;;4955506;29;20023;-71
2022/12/23 05:41:15;;;;;;;1.63;0.80;;;15.90;67.80;;;;;;4955419;29;20034;-71
2022/12/23 05:43:41;;;;;;;1.45;0.80;;;15.90;67.80;;;;;;4955294;29;20034;-71
2022/12/23 05:46:07;;;;;;;1.90;0.80;;;15.90;67.80;;;;;;4955356;29;20031;-72
2022/12/23 05:48:32;;;;;;;1.73;0.70;;;15.90;67.70;;;;;;4955239;29;20038;-71
2022/12/23 05:50:58;;;;;;;1.52;0.80;;;15.90;67.70;;;;;;4955141;29;20082;-71
2022/12/23 05:53:23;;;;;;;1.38;0.93;;;15.90;67.70;;;;;;4955087;29;20485;-71
2022/12/23 05:55:49;;;;;;;1.70;0.73;;;15.90;67.70;;;;;;4955253;29;20063;-71
2022/12/23 05:58:15;;;;;;;2.05;1.23;;;15.90;67.70;;;;;;4955185;29;20027;-71
2022/12/23 06:00:41;;;;;;;1.75;0.60;;;16.00;67.70;;;;;;4955044;29;20112;-71
2022/12/23 06:03:06;;;;;;;1.35;0.80;;;15.90;67.70;;;;;;4954995;29;20074;-71
2022/12/23 06:05:32;;;;;;;0.90;0.80;;;15.90;67.70;;;;;;4954367;28;20023;-71
2022/12/23 06:07:58;;;;;;;1.10;0.70;;;15.90;67.70;;;;;;4954811;29;20043;-72
2022/12/23 06:10:23;;;;;;;1.30;1.00;;;15.90;67.70;;;;;;4954799;29;20106;-72
2022/12/23 06:12:49;;;;;;;2.03;1.08;;;15.90;67.70;;;;;;4954762;29;20117;-72
2022/12/23 06:15:15;;;;;;;0.80;0.70;;;15.90;67.70;;;;;;4954742;29;20339;-71
2022/12/23 06:17:40;;;;;;;1.13;0.70;;;15.90;67.70;;;;;;4954788;29;20046;-72
2022/12/23 06:20:06;;;;;;;1.45;0.90;;;15.90;67.80;;;;;;4954573;29;20034;-72
2022/12/23 06:22:32;;;;;;;1.58;0.65;;;15.90;67.70;;;;;;4937276;29;20509;-72
2022/12/23 06:24:58;;;;;;;1.90;0.80;;;15.90;67.70;;;;;;4954837;29;20038;-72
2022/12/23 06:27:23;;;;;;;2.15;1.02;;;15.90;67.80;;;;;;4954594;29;20382;-71
2022/12/23 06:29:49;;;;;;;2.80;1.20;;;15.90;67.70;;;;;;4954397;29;20051;-72
2022/12/23 06:32:14;;;;;;;0.70;0.70;;;15.90;67.80;;;;;;4954258;28;20049;-71
2022/12/23 06:34:41;;;;;;;1.08;0.70;;;16.00;68.10;;;;;;4954844;29;20031;-68
2022/12/23 06:37:07;;;;;;;2.30;1.20;;;15.90;67.70;;;;;;4954622;29;20079;-66
2022/12/23 06:39:32;;;;;;;1.80;0.93;;;15.90;67.70;;;;;;4954412;29;20031;-67
2022/12/23 06:41:58;;;;;;;1.45;0.90;;;15.90;67.80;;;;;;4954379;29;20106;-68
2022/12/23 06:44:23;;;;;;;1.80;0.88;;;15.90;67.70;;;;;;4954386;29;20073;-68
2022/12/23 06:46:49;;;;;;;2.05;0.88;;;15.90;67.70;;;;;;4954284;29;20511;-68
2022/12/23 06:49:15;;;;;;;1.38;0.77;;;16.00;67.80;;;;;;4954172;29;20070;-68
2022/12/23 06:51:40;;;;;;;2.72;0.88;;;15.90;67.70;;;;;;4954255;29;20034;-71
2022/12/23 06:54:09;;;;;;;1.92;1.05;;;15.90;68.40;;;;;;4953993;29;20043;-69
2022/12/23 06:56:35;;;;;;;1.83;0.90;;;15.90;67.70;;;;;;4954128;29;20430;-69
2022/12/23 06:59:00;;;;;;;1.63;0.98;;;15.90;67.70;;;;;;4954173;29;20106;-69
2022/12/23 07:01:26;;;;;;;1.45;1.10;;;15.90;67.70;;;;;;4954122;29;20027;-70
2022/12/23 07:03:51;;;;;;;3.35;1.55;;;15.90;67.70;;;;;;4954084;29;20043;-69
2022/12/23 07:06:17;;;;;;;2.25;1.80;;;16.00;67.60;;;;;;4954144;29;20034;-69
2022/12/23 07:08:42;;;;;;;4.15;1.70;;;15.90;67.60;;;;;;4954303;29;20082;-69
2022/12/23 07:11:08;;;;;;;5.20;2.15;;;15.90;67.70;;;;;;4954375;29;20403;-70
2022/12/23 07:13:34;;;;;;;3.80;2.40;;;15.90;67.80;;;;;;4954395;29;20051;-70
2022/12/23 07:16:05;;;;;;;7.10;3.15;;;15.90;68.00;;;;;;4954738;28;20085;-70
2022/12/23 07:18:30;;;;;;;6.85;3.35;;;15.90;68.00;;;;;;4958104;29;20405;-70
2022/12/23 07:20:58;;;;;;;4.45;3.08;;;15.90;68.10;;;;;;4957943;29;20163;-70
2022/12/23 07:23:24;;;;;;;5.97;2.72;;;15.90;68.10;;;;;;4957975;29;20082;-71
2022/12/23 07:25:50;;;;;;;4.43;2.97;;;16.00;68.10;;;;;;4957876;29;20024;-70
2022/12/23 07:28:15;;;;;;;4.50;2.60;;;15.90;68.10;;;;;;4958029;29;20039;-70
2022/12/23 07:30:41;;;;;;;5.57;2.90;;;16.00;68.20;;;;;;4957824;28;20091;-71
2022/12/23 07:33:07;;;;;;;6.03;2.72;;;15.90;68.20;;;;;;4957632;29;20087;-71
2022/12/23 07:35:32;;;;;;;6.20;2.72;;;16.00;68.20;;;;;;4957664;29;20470;-70
2022/12/23 07:37:58;;;;;;;3.83;2.25;;;16.00;68.10;;;;;;4957698;29;20109;-71
2022/12/23 07:40:24;;;;;;;4.45;2.63;;;15.90;68.10;;;;;;4957968;29;20023;-72
2022/12/23 07:42:54;;;;;;;2.95;2.10;;;16.00;68.20;;;;;;4957499;29;20055;-70
2022/12/23 07:45:20;;;;;;;3.75;2.42;;;16.00;68.30;;;;;;4957529;29;20031;-72
2022/12/23 07:47:46;;;;;;;6.32;2.30;;;16.00;68.40;;;;;;4957423;29;20120;-72
2022/12/23 07:50:12;;;;;;;3.28;2.28;;;16.00;68.40;;;;;;4940393;29;20035;-71
2022/12/23 07:52:38;;;;;;;3.38;1.90;;;16.00;68.40;;;;;;4940023;29;20545;-72
2022/12/23 07:55:05;;;;;;;2.65;2.00;;;16.00;68.50;;;;;;4957414;29;20035;-72
2022/12/23 07:57:36;;;;;;;3.58;1.90;;;16.00;68.40;;;;;;4957391;29;20028;-71
2022/12/23 08:00:06;;;;;;;3.17;2.00;;;16.10;68.40;;;;;;4957419;29;20082;-71
2022/12/23 08:02:32;;;;;;;;;;;16.10;68.30;;;;;;4957790;29;20100;-70
2022/12/23 08:04:57;;;;;;;3.55;1.83;;;16.10;68.20;;;;;;4957292;29;20004;-71
2022/12/23 08:07:23;;;;;;;2.53;1.73;;;16.10;68.40;;;;;;4957293;29;20031;-71
2022/12/23 08:09:48;;;;;;;4.45;2.05;;;16.10;68.40;;;;;;4957395;29;20032;-72
2022/12/23 08:12:15;;;;;;;2.47;1.90;;;16.10;68.40;;;;;;4956994;29;20038;-72
2022/12/23 08:14:40;;;;;;;5.60;2.25;;;16.10;68.50;;;;;;4957096;29;20031;-73
2022/12/23 08:17:06;;;;;;;4.32;2.55;;;16.10;68.40;;;;;;4956991;29;20050;-72
2022/12/23 08:19:32;;;;;;;7.78;2.28;;;16.10;68.30;;;;;;4956900;29;20113;-72
2022/12/23 08:21:57;;;;;;;5.18;2.50;;;16.20;68.50;;;;;;4956950;29;20031;-72
2022/12/23 08:24:23;;;;;;;5.05;2.38;;;16.20;69.00;;;;;;4957054;29;20037;-71
2022/12/23 08:26:49;;;;;;;3.35;2.35;;;16.20;68.40;;;;;;4956293;28;20589;-71
2022/12/23 08:29:14;;;;;;;5.57;2.75;;;16.20;68.40;;;;;;4956798;29;20035;-72
2022/12/23 08:31:40;;;;;;;5.88;2.50;;;16.20;68.90;;;;;;4956569;28;20498;-71
2022/12/23 08:34:05;;;;;;;5.45;2.85;;;16.20;68.20;;;;;;4956646;29;20042;-71
2022/12/23 08:36:33;;;;;;;5.85;2.70;;;16.20;68.20;;;;;;4956689;29;20502;-71
2022/12/23 08:39:03;;;;;;;4.00;2.30;;;16.20;68.30;;;;;;4956640;29;20039;-71
2022/12/23 08:41:30;;;;;;;;;;;16.20;68.20;;;;;;4957006;29;20023;-71
2022/12/23 08:43:55;;;;;;;4.68;2.63;;;16.20;68.30;;;;;;4956694;29;19913;-72
2022/12/23 08:46:21;;;;;;;7.70;3.05;;;16.20;68.30;;;;;;4956563;29;20027;-72
2022/12/23 08:48:47;;;;;;;3.50;2.13;;;16.20;68.20;;;;;;4956544;29;20031;-72
2022/12/23 08:51:15;;;;;;;10.70;3.17;;;16.20;68.20;;;;;;4956513;29;20051;-72
2022/12/23 08:53:41;;;;;;;7.13;2.90;;;16.20;68.20;;;;;;4956375;29;20035;-72
2022/12/23 08:56:12;;;;;;;5.72;2.63;;;16.20;68.10;;;;;;4956275;29;20046;-72
2022/12/23 08:58:40;;;;;;;5.50;2.38;;;16.20;68.30;;;;;;4956326;29;20074;-71
2022/12/23 09:01:08;;;;;;;4.78;2.47;;;16.30;68.40;;;;;;4956324;29;20046;-70
2022/12/23 09:03:36;;;;;;;4.57;2.30;;;16.20;68.40;;;;;;4956076;29;20027;-71
2022/12/23 09:06:36;;;;;;;6.47;2.22;;;16.30;68.40;;;;;;4956208;29;20035;-71
2022/12/23 09:09:02;;;;;;;4.90;2.40;;;16.20;68.20;;;;;;4914765;29;20043;-70
2022/12/23 09:11:28;;;;;;;4.78;2.30;;;16.30;68.40;;;;;;4956096;29;20117;-73
2022/12/23 09:13:56;;;;;;;5.53;2.55;;;16.30;68.40;;;;;;4956393;29;20040;-70
2022/12/23 09:16:22;;;;;;;3.42;2.08;;;16.30;68.40;;;;;;4955943;29;20110;-68
2022/12/23 09:18:48;;;;;;;5.35;2.25;;;16.20;68.30;;;;;;4956156;29;20110;-67
2022/12/23 09:21:16;;;;;;;7.25;2.50;;;16.30;68.40;;;;;;4955963;29;20105;-75
2022/12/23 09:23:42;;;;;;;3.35;1.98;;;16.30;68.40;;;;;;4955953;29;20382;-71
2022/12/23 09:26:09;;;;;;;7.05;2.17;;;16.30;68.40;;;;;;4955744;29;20033;-74
2022/12/23 09:28:35;;;;;;;4.43;2.28;;;16.30;68.40;;;;;;4955735;29;20051;-72
2022/12/23 09:31:11;;;;;;;4.85;2.00;;;16.30;68.40;;;;;;4955639;28;20126;-73
2022/12/23 09:33:37;;;;;;;5.28;2.25;;;16.30;68.40;;;;;;4955637;29;20039;-72
2022/12/23 09:36:04;;;;;;;5.35;2.20;;;16.30;68.40;;;;;;4955668;29;20019;-71
2022/12/23 09:38:30;;;;;;;5.07;2.30;;;16.30;68.40;;;;;;4955146;28;20042;-70
2022/12/23 09:41:02;;;;;;;3.85;1.98;;;16.30;68.40;;;;;;4955438;29;20019;-69
2022/12/23 09:43:54;;;;;;;4.55;2.22;;;16.30;68.40;;;;;;4955405;29;20039;-74
2022/12/23 09:46:26;;;;;;;3.72;2.40;;;16.30;68.50;;;;;;4954709;29;20039;-72
2022/12/23 09:49:08;;;;;;;5.25;2.28;;;16.30;68.40;;;;;;4955433;29;20136;-74
2022/12/23 09:51:33;;;;;;;3.85;1.90;;;16.30;68.40;;;;;;4955275;29;20466;-74
2022/12/23 09:54:21;;;;;;;4.40;2.28;;;16.30;68.40;;;;;;4955303;29;20036;-73
2022/12/23 09:56:53;;;;;;;4.82;2.08;;;16.30;68.40;;;;;;4955273;29;20493;-74
2022/12/23 09:59:28;;;;;;;3.80;2.20;;;16.30;68.30;;;;;;4955033;29;20038;-74
2022/12/23 10:02:23;;;;;;;3.78;1.95;;;16.40;68.40;;;;;;4955030;29;20035;-74
2022/12/23 10:05:05;;;;;;;3.13;1.88;;;16.30;68.30;;;;;;4944444;29;20039;-74
2022/12/23 10:07:46;;;;;;;3.65;1.73;;;16.40;68.40;;;;;;4955086;29;20493;-74
2022/12/23 10:10:35;;;;;;;5.05;2.55;;;16.40;68.30;;;;;;4955108;29;20035;-74
2022/12/23 10:13:04;;;;;;;7.85;2.30;;;16.40;68.30;;;;;;4954894;29;20066;-74
2022/12/23 10:15:43;;;;;;;7.65;2.58;;;16.40;68.30;;;;;;4954990;29;20442;-74
2022/12/23 10:18:46;;;;;;;6.50;2.10;;;16.40;68.20;;;;;;4954878;29;20114;-74
2022/12/23 10:21:20;;;;;;;5.25;2.03;;;16.40;68.20;;;;;;4954744;29;20031;-74
2022/12/23 10:23:50;;;;;;;5.07;1.60;;;16.30;68.20;;;;;;4954764;29;20031;-74
2022/12/23 10:26:21;;;;;;;4.13;1.63;;;16.40;68.20;;;;;;4954654;29;20078;-74
2022/12/23 10:28:47;;;;;;;4.75;2.22;;;16.40;68.20;;;;;;4954834;29;20031;-74
2022/12/23 10:31:21;;;;;;;5.82;2.20;;;16.40;68.20;;;;;;4954672;28;20379;-75
2022/12/23 10:34:16;;;;;;;6.63;2.05;;;16.40;68.20;;;;;;4954601;29;20090;-75
2022/12/23 10:37:03;;;;;;;4.40;1.98;;;16.40;68.20;;;;;;4954430;29;20031;-84
2022/12/23 10:39:32;;;;;;;3.30;1.90;;;16.40;68.20;;;;;;4954634;29;20031;-73
2022/12/23 10:42:16;;;;;;;3.90;1.98;;;16.40;68.20;;;;;;4954517;29;20032;-73
2022/12/23 10:44:58;;;;;;;4.05;1.60;;;16.40;68.20;;;;;;4937272;29;20027;-73
2022/12/23 10:47:44;;;;;;;4.43;1.70;;;16.50;68.20;;;;;;4954407;29;20035;-73
2022/12/23 10:50:30;;;;;;;2.65;1.75;;;16.40;68.20;;;;;;4954392;28;20046;-73
2022/12/23 10:53:01;;;;;;;3.17;1.80;;;16.40;68.20;;;;;;4954506;29;20050;-76
2022/12/23 10:55:33;;;;;;;4.53;1.55;;;16.40;68.20;;;;;;4954324;29;20047;-77
2022/12/23 10:58:11;;;;;;;3.15;1.95;;;16.40;68.80;;;;;;4954528;29;20062;-77
2022/12/23 11:00:41;;;;;;;2.40;1.50;;;16.40;68.20;;;;;;4954370;29;20038;-77
2022/12/23 11:03:13;;;;;;;2.75;1.65;;;16.40;68.30;;;;;;4954566;29;20073;-77
2022/12/23 11:05:39;;;;;;;4.88;1.75;;;16.40;68.30;;;;;;4954325;29;20035;-74
2022/12/23 11:08:05;;;;;;;3.85;1.92;;;16.40;68.30;;;;;;4954250;29;20066;-77
2022/12/23 11:10:32;;;;;;;3.17;1.58;;;16.40;68.30;;;;;;4954323;29;20058;-73
2022/12/23 11:12:59;;;;;;;4.07;1.55;;;16.40;68.30;;;;;;4954177;29;20051;-72
2022/12/23 11:15:33;;;;;;;4.32;1.80;;;16.40;68.40;;;;;;4954201;29;20171;-72
2022/12/23 11:18:11;;;;;;;3.00;1.58;;;16.40;68.30;;;;;;4954035;29;20035;-74
2022/12/23 11:20:38;;;;;;;2.67;1.45;;;16.40;68.40;;;;;;4954012;29;20035;-72
2022/12/23 11:23:06;;;;;;;5.63;1.70;;;16.40;69.10;;;;;;4954073;29;20027;-72
2022/12/23 11:25:37;;;;;;;2.97;1.50;;;16.40;68.40;;;;;;4954041;29;20039;-73
2022/12/23 11:28:13;;;;;;;4.10;1.58;;;16.50;68.40;;;;;;4954111;29;20505;-76
2022/12/23 11:31:07;;;;;;;1.70;1.40;;;16.40;68.40;;;;;;4953963;28;20038;-73
2022/12/23 11:33:36;;;;;;;4.35;1.77;;;16.40;68.40;;;;;;4953950;29;20157;-75
2022/12/23 11:36:22;;;;;;;5.53;2.00;;;16.40;68.30;;;;;;4953897;29;20038;-74
2022/12/23 11:39:00;;;;;;;3.00;1.60;;;16.50;68.30;;;;;;4953974;29;20382;-74
2022/12/23 11:41:28;;;;;;;1.95;1.48;;;16.50;68.30;;;;;;4954237;29;20414;-74
2022/12/23 11:44:10;;;;;;;2.47;1.42;;;16.50;68.30;;;;;;4953761;29;20035;-74
2022/12/23 11:46:36;;;;;;;1.65;1.20;;;16.40;68.20;;;;;;4950854;29;20428;-75
2022/12/23 11:49:13;;;;;;;3.00;1.23;;;16.50;68.30;;;;;;4953903;29;20032;-76
2022/12/23 11:51:39;;;;;;;4.03;1.27;;;16.50;68.30;;;;;;4953794;29;20074;-74
2022/12/23 11:54:04;;;;;;;3.70;1.70;;;16.50;68.30;;;;;;4953551;29;20042;-75
2022/12/23 11:56:37;;;;;;;2.35;1.48;;;16.40;68.30;;;;;;4953639;29;20135;-74
2022/12/23 11:59:07;;;;;;;2.20;1.30;;;16.50;68.40;;;;;;4953719;29;20121;-74
2022/12/23 12:01:36;;;;;;;3.42;1.55;;;16.40;68.30;;;;;;4954091;28;20027;-74
2022/12/23 12:04:05;;;;;;;3.25;1.50;;;16.50;68.40;;;;;;4957275;29;20418;-74
2022/12/23 12:06:31;;;;;;;3.45;1.80;;;16.50;68.40;;;;;;4957102;29;20030;-76
2022/12/23 12:09:00;;;;;;;3.50;1.50;;;16.50;68.80;;;;;;4957130;29;20038;-76
2022/12/23 12:11:27;;;;;;;3.65;1.60;;;16.50;68.30;;;;;;4957161;29;20031;-77
2022/12/23 12:14:02;;;;;;;2.33;1.40;;;16.50;68.30;;;;;;4956887;29;20520;-76
2022/12/23 12:17:02;;;;;;;4.07;1.52;;;16.40;68.30;;;;;;4956790;29;20035;-76
2022/12/23 12:19:37;;;;;;;2.33;1.55;;;16.40;68.30;;;;;;4923510;29;20035;-76
2022/12/23 12:22:10;;;;;;;3.95;1.60;;;16.40;68.30;;;;;;4956287;29;20113;-76
2022/12/23 12:24:46;;;;;;;2.75;1.52;;;16.40;68.30;;;;;;4940105;29;20107;-75
2022/12/23 12:27:12;;;;;;;2.22;1.55;;;16.40;68.30;;;;;;4955631;29;20168;-74
2022/12/23 12:29:47;;;;;;;2.75;1.55;;;16.40;68.30;;;;;;4956226;29;20482;-75
2022/12/23 12:32:34;;;;;;;2.40;1.48;;;16.40;68.30;;;;;;4956211;28;20413;-75
2022/12/23 12:35:05;;;;;;;3.22;1.42;;;16.40;68.40;;;;;;4956626;29;20031;-75
2022/12/23 12:37:43;;;;;;;1.75;1.45;;;16.40;68.40;;;;;;4956535;29;20506;-75
2022/12/23 12:40:39;;;;;;;2.13;1.27;;;16.40;68.40;;;;;;4956573;29;20486;-75
2022/12/23 12:43:19;;;;;;;6.78;1.65;;;16.50;68.40;;;;;;4954958;29;20562;-75
2022/12/23 12:45:52;;;;;;;4.15;1.40;;;16.40;68.30;;;;;;4956704;29;20039;-75
2022/12/23 12:48:47;;;;;;;3.42;1.40;;;16.40;68.30;;;;;;4956456;29;20050;-74
2022/12/23 12:51:19;;;;;;;3.08;1.38;;;16.40;68.30;;;;;;4956327;29;20023;-75
2022/12/23 12:54:11;;;;;;;2.50;1.40;;;16.50;68.30;;;;;;4956273;29;20039;-75
2022/12/23 12:56:45;;;;;;;3.17;1.40;;;16.40;68.30;;;;;;4956311;29;20081;-74
2022/12/23 12:59:19;;;;;;;1.88;1.52;;;16.50;68.30;;;;;;4956246;29;20144;-74
2022/12/23 13:02:04;;;;;;;2.58;1.27;;;16.40;68.90;;;;;;4956610;29;20038;-76
2022/12/23 13:04:59;;;;;;;2.92;1.67;;;16.50;68.20;;;;;;4956267;29;20038;-77
2022/12/23 13:07:54;;;;;;;2.20;1.30;;;16.40;68.20;;;;;;4956165;29;20030;-76
2022/12/23 13:10:46;;;;;;;3.40;1.75;;;16.50;80.70;;;;;;4956116;29;20409;-77
2022/12/23 13:13:33;;;;;;;5.32;1.60;;;16.40;68.00;;;;;;4955911;28;20031;-77
2022/12/23 13:16:06;;;;;;;2.03;1.17;;;16.50;68.10;;;;;;4955962;29;20434;-77
2022/12/23 13:19:11;;;;;;;2.28;1.25;;;16.40;68.10;;;;;;4955830;29;20032;-75
2022/12/23 13:22:01;;;;;;;4.53;1.50;;;16.50;68.10;;;;;;4955881;29;20462;-75
2022/12/23 13:24:53;;;;;;;2.97;1.53;;;16.40;68.10;;;;;;4955765;29;20348;-75
2022/12/23 13:27:31;;;;;;;3.08;1.70;;;16.40;68.00;;;;;;4947746;29;20290;-75
2022/12/23 13:30:17;;;;;;;4.22;1.40;;;16.30;72.80;;;;;;4955536;28;20031;-74
2022/12/23 13:32:46;;;;;;;1.88;1.17;;;16.40;68.00;;;;;;4955465;29;20098;-75